sensor_id;sensor_type;location;lat;lon;timestamp;P1;durP1;ratioP1;P2;durP2;ratioP2
51146;SDS011;37207;53.060;18.726;2023-09-18T00:00:30;13.10;;;12.00;;
51146;SDS011;37207;53.060;18.726;2023-09-18T00:03:19;13.10;;;11.70;;
51146;SDS011;37207;53.060;18.726;2023-09-18T00:05:47;12.90;;;12.10;;
51146;SDS011;37207;53.060;18.726;2023-09-18T00:08:17;13.30;;;12.30;;
51146;SDS011;37207;53.060;18.726;2023-09-18T00:10:48;21.40;;;12.40;;
51146;SDS011;37207;53.060;18.726;2023-09-18T00:13:19;12.40;;;11.70;;
51146;SDS011;37207;53.060;18.726;2023-09-18T00:15:46;12.30;;;11.40;;
51146;SDS011;37207;53.060;18.726;2023-09-18T00:18:15;12.60;;;11.60;;
51146;SDS011;37207;53.060;18.726;2023-09-18T00:20:42;12.90;;;12.10;;
51146;SDS011;37207;53.060;18.726;2023-09-18T00:23:10;13.40;;;12.30;;
51146;SDS011;37207;53.060;18.726;2023-09-18T00:25:37;12.60;;;11.80;;
51146;SDS011;37207;53.060;18.726;2023-09-18T00:28:04;13.30;;;12.10;;
51146;SDS011;37207;53.060;18.726;2023-09-18T00:30:31;13.60;;;12.40;;
51146;SDS011;37207;53.060;18.726;2023-09-18T00:35:28;12.40;;;11.30;;
51146;SDS011;37207;53.060;18.726;2023-09-18T00:37:55;12.00;;;11.30;;
51146;SDS011;37207;53.060;18.726;2023-09-18T00:40:22;12.30;;;11.50;;
51146;SDS011;37207;53.060;18.726;2023-09-18T00:42:48;12.50;;;11.40;;
51146;SDS011;37207;53.060;18.726;2023-09-18T00:45:15;13.30;;;11.60;;
51146;SDS011;37207;53.060;18.726;2023-09-18T00:47:42;12.40;;;11.40;;
51146;SDS011;37207;53.060;18.726;2023-09-18T00:50:09;13.20;;;12.00;;
51146;SDS011;37207;53.060;18.726;2023-09-18T00:52:38;12.90;;;11.60;;
51146;SDS011;37207;53.060;18.726;2023-09-18T00:57:34;11.60;;;10.90;;
51146;SDS011;37207;53.060;18.726;2023-09-18T01:00:02;12.40;;;11.70;;
51146;SDS011;37207;53.060;18.726;2023-09-18T01:02:31;13.80;;;12.70;;
51146;SDS011;37207;53.060;18.726;2023-09-18T01:04:58;14.10;;;13.10;;
51146;SDS011;37207;53.060;18.726;2023-09-18T01:07:25;13.60;;;12.70;;
51146;SDS011;37207;53.060;18.726;2023-09-18T01:09:52;14.90;;;13.40;;
51146;SDS011;37207;53.060;18.726;2023-09-18T01:17:43;13.20;;;12.10;;
51146;SDS011;37207;53.060;18.726;2023-09-18T01:20:10;14.50;;;13.30;;
51146;SDS011;37207;53.060;18.726;2023-09-18T01:22:38;14.70;;;13.70;;
51146;SDS011;37207;53.060;18.726;2023-09-18T01:25:05;13.10;;;12.30;;
51146;SDS011;37207;53.060;18.726;2023-09-18T01:27:33;14.90;;;13.90;;
51146;SDS011;37207;53.060;18.726;2023-09-18T01:30:00;14.00;;;13.00;;
51146;SDS011;37207;53.060;18.726;2023-09-18T01:32:27;15.30;;;13.90;;
51146;SDS011;37207;53.060;18.726;2023-09-18T01:34:57;15.70;;;13.70;;
51146;SDS011;37207;53.060;18.726;2023-09-18T01:37:27;14.80;;;13.50;;
51146;SDS011;37207;53.060;18.726;2023-09-18T01:39:55;14.50;;;13.30;;
51146;SDS011;37207;53.060;18.726;2023-09-18T01:42:26;14.40;;;13.40;;
51146;SDS011;37207;53.060;18.726;2023-09-18T01:44:54;15.80;;;14.30;;
51146;SDS011;37207;53.060;18.726;2023-09-18T01:47:21;14.60;;;13.70;;
51146;SDS011;37207;53.060;18.726;2023-09-18T01:49:53;15.60;;;14.60;;
51146;SDS011;37207;53.060;18.726;2023-09-18T01:52:20;15.00;;;14.00;;
51146;SDS011;37207;53.060;18.726;2023-09-18T01:54:46;16.00;;;14.80;;
51146;SDS011;37207;53.060;18.726;2023-09-18T01:57:14;14.80;;;13.60;;
51146;SDS011;37207;53.060;18.726;2023-09-18T01:59:40;16.80;;;15.50;;
51146;SDS011;37207;53.060;18.726;2023-09-18T02:02:07;16.90;;;15.90;;
51146;SDS011;37207;53.060;18.726;2023-09-18T02:04:35;17.10;;;15.80;;
51146;SDS011;37207;53.060;18.726;2023-09-18T02:07:03;17.60;;;15.80;;
51146;SDS011;37207;53.060;18.726;2023-09-18T02:09:30;17.40;;;15.80;;
51146;SDS011;37207;53.060;18.726;2023-09-18T02:11:57;17.60;;;16.00;;
51146;SDS011;37207;53.060;18.726;2023-09-18T02:14:23;16.40;;;14.80;;
51146;SDS011;37207;53.060;18.726;2023-09-18T02:16:50;16.40;;;15.20;;
51146;SDS011;37207;53.060;18.726;2023-09-18T02:19:17;17.10;;;15.60;;
51146;SDS011;37207;53.060;18.726;2023-09-18T02:21:47;17.50;;;15.90;;
51146;SDS011;37207;53.060;18.726;2023-09-18T02:24:13;17.40;;;15.90;;
51146;SDS011;37207;53.060;18.726;2023-09-18T02:26:40;17.50;;;15.80;;
51146;SDS011;37207;53.060;18.726;2023-09-18T02:29:07;17.30;;;15.90;;
51146;SDS011;37207;53.060;18.726;2023-09-18T02:31:39;16.90;;;15.70;;
51146;SDS011;37207;53.060;18.726;2023-09-18T02:34:06;18.60;;;15.90;;
51146;SDS011;37207;53.060;18.726;2023-09-18T02:36:33;18.30;;;16.70;;
51146;SDS011;37207;53.060;18.726;2023-09-18T02:39:00;17.90;;;16.30;;
51146;SDS011;37207;53.060;18.726;2023-09-18T02:41:27;18.40;;;17.10;;
51146;SDS011;37207;53.060;18.726;2023-09-18T02:43:53;18.90;;;17.20;;
51146;SDS011;37207;53.060;18.726;2023-09-18T02:46:20;19.00;;;17.40;;
51146;SDS011;37207;53.060;18.726;2023-09-18T02:48:47;17.20;;;15.60;;
51146;SDS011;37207;53.060;18.726;2023-09-18T02:51:14;18.60;;;17.20;;
51146;SDS011;37207;53.060;18.726;2023-09-18T02:53:41;18.60;;;16.70;;
51146;SDS011;37207;53.060;18.726;2023-09-18T02:56:07;18.70;;;17.00;;
51146;SDS011;37207;53.060;18.726;2023-09-18T02:58:34;23.80;;;17.00;;
51146;SDS011;37207;53.060;18.726;2023-09-18T03:01:00;19.50;;;17.50;;
51146;SDS011;37207;53.060;18.726;2023-09-18T03:03:30;19.00;;;17.40;;
51146;SDS011;37207;53.060;18.726;2023-09-18T03:06:03;16.90;;;15.70;;
51146;SDS011;37207;53.060;18.726;2023-09-18T03:08:31;17.70;;;16.20;;
51146;SDS011;37207;53.060;18.726;2023-09-18T03:10:58;17.20;;;16.00;;
51146;SDS011;37207;53.060;18.726;2023-09-18T03:13:31;17.80;;;16.50;;
51146;SDS011;37207;53.060;18.726;2023-09-18T03:15:58;18.60;;;17.20;;
51146;SDS011;37207;53.060;18.726;2023-09-18T03:18:25;18.70;;;17.20;;
51146;SDS011;37207;53.060;18.726;2023-09-18T03:20:52;18.80;;;17.40;;
51146;SDS011;37207;53.060;18.726;2023-09-18T03:23:18;18.90;;;17.40;;
51146;SDS011;37207;53.060;18.726;2023-09-18T03:25:45;17.80;;;16.40;;
51146;SDS011;37207;53.060;18.726;2023-09-18T03:28:12;28.80;;;17.60;;
51146;SDS011;37207;53.060;18.726;2023-09-18T03:30:39;19.00;;;17.40;;
51146;SDS011;37207;53.060;18.726;2023-09-18T03:33:06;19.10;;;17.50;;
51146;SDS011;37207;53.060;18.726;2023-09-18T03:35:34;19.20;;;17.90;;
51146;SDS011;37207;53.060;18.726;2023-09-18T03:38:13;18.90;;;17.40;;
51146;SDS011;37207;53.060;18.726;2023-09-18T03:40:40;19.70;;;17.90;;
51146;SDS011;37207;53.060;18.726;2023-09-18T03:43:07;19.80;;;18.10;;
51146;SDS011;37207;53.060;18.726;2023-09-18T03:45:35;19.10;;;17.70;;
51146;SDS011;37207;53.060;18.726;2023-09-18T03:48:02;19.70;;;18.00;;
51146;SDS011;37207;53.060;18.726;2023-09-18T03:50:28;19.10;;;17.30;;
51146;SDS011;37207;53.060;18.726;2023-09-18T03:52:55;20.20;;;18.10;;
51146;SDS011;37207;53.060;18.726;2023-09-18T03:55:22;19.60;;;18.10;;
51146;SDS011;37207;53.060;18.726;2023-09-18T03:57:48;19.30;;;17.80;;
51146;SDS011;37207;53.060;18.726;2023-09-18T04:00:15;19.60;;;18.10;;
51146;SDS011;37207;53.060;18.726;2023-09-18T04:02:42;20.00;;;18.10;;
51146;SDS011;37207;53.060;18.726;2023-09-18T04:05:09;19.20;;;17.50;;
51146;SDS011;37207;53.060;18.726;2023-09-18T04:07:36;20.40;;;17.90;;
51146;SDS011;37207;53.060;18.726;2023-09-18T04:10:02;20.60;;;19.00;;
51146;SDS011;37207;53.060;18.726;2023-09-18T04:12:30;20.80;;;18.90;;
51146;SDS011;37207;53.060;18.726;2023-09-18T04:14:56;20.00;;;18.00;;
51146;SDS011;37207;53.060;18.726;2023-09-18T04:17:23;31.40;;;19.50;;
51146;SDS011;37207;53.060;18.726;2023-09-18T04:19:51;18.50;;;16.80;;
51146;SDS011;37207;53.060;18.726;2023-09-18T04:22:17;19.40;;;17.00;;
51146;SDS011;37207;53.060;18.726;2023-09-18T04:24:44;18.60;;;16.90;;
51146;SDS011;37207;53.060;18.726;2023-09-18T04:27:10;19.70;;;17.60;;
51146;SDS011;37207;53.060;18.726;2023-09-18T04:29:37;21.20;;;19.10;;
51146;SDS011;37207;53.060;18.726;2023-09-18T04:32:03;19.80;;;18.10;;
51146;SDS011;37207;53.060;18.726;2023-09-18T04:34:31;19.40;;;17.80;;
51146;SDS011;37207;53.060;18.726;2023-09-18T04:36:58;19.30;;;17.80;;
51146;SDS011;37207;53.060;18.726;2023-09-18T04:39:25;20.60;;;18.60;;
51146;SDS011;37207;53.060;18.726;2023-09-18T04:41:51;21.70;;;19.80;;
51146;SDS011;37207;53.060;18.726;2023-09-18T04:44:18;19.90;;;17.90;;
51146;SDS011;37207;53.060;18.726;2023-09-18T04:46:45;20.80;;;19.20;;
51146;SDS011;37207;53.060;18.726;2023-09-18T04:49:12;20.00;;;18.30;;
51146;SDS011;37207;53.060;18.726;2023-09-18T04:51:39;20.60;;;18.50;;
51146;SDS011;37207;53.060;18.726;2023-09-18T04:54:06;20.80;;;19.10;;
51146;SDS011;37207;53.060;18.726;2023-09-18T04:56:33;22.40;;;20.40;;
51146;SDS011;37207;53.060;18.726;2023-09-18T04:58:59;22.10;;;20.20;;
51146;SDS011;37207;53.060;18.726;2023-09-18T05:01:26;23.70;;;20.80;;
51146;SDS011;37207;53.060;18.726;2023-09-18T05:03:53;20.90;;;18.80;;
51146;SDS011;37207;53.060;18.726;2023-09-18T05:06:20;19.90;;;18.10;;
51146;SDS011;37207;53.060;18.726;2023-09-18T05:08:47;21.90;;;19.40;;
51146;SDS011;37207;53.060;18.726;2023-09-18T05:11:13;20.20;;;18.50;;
51146;SDS011;37207;53.060;18.726;2023-09-18T05:13:40;21.60;;;19.80;;
51146;SDS011;37207;53.060;18.726;2023-09-18T05:16:06;21.80;;;19.40;;
51146;SDS011;37207;53.060;18.726;2023-09-18T05:18:33;19.80;;;18.10;;
51146;SDS011;37207;53.060;18.726;2023-09-18T05:20:59;21.20;;;19.30;;
51146;SDS011;37207;53.060;18.726;2023-09-18T05:23:27;21.00;;;19.00;;
51146;SDS011;37207;53.060;18.726;2023-09-18T05:25:53;18.90;;;17.20;;
51146;SDS011;37207;53.060;18.726;2023-09-18T05:28:20;19.40;;;17.90;;
51146;SDS011;37207;53.060;18.726;2023-09-18T05:30:47;19.90;;;17.40;;
51146;SDS011;37207;53.060;18.726;2023-09-18T05:33:13;19.70;;;17.80;;
51146;SDS011;37207;53.060;18.726;2023-09-18T05:35:41;18.50;;;17.10;;
51146;SDS011;37207;53.060;18.726;2023-09-18T05:40:37;19.00;;;17.20;;
51146;SDS011;37207;53.060;18.726;2023-09-18T05:43:03;20.20;;;18.00;;
51146;SDS011;37207;53.060;18.726;2023-09-18T05:45:30;19.70;;;17.70;;
51146;SDS011;37207;53.060;18.726;2023-09-18T05:47:58;18.00;;;16.50;;
51146;SDS011;37207;53.060;18.726;2023-09-18T05:50:30;28.30;;;17.00;;
51146;SDS011;37207;53.060;18.726;2023-09-18T05:52:58;19.80;;;17.40;;
51146;SDS011;37207;53.060;18.726;2023-09-18T05:55:30;17.60;;;15.70;;
51146;SDS011;37207;53.060;18.726;2023-09-18T05:57:57;16.80;;;15.40;;
51146;SDS011;37207;53.060;18.726;2023-09-18T06:00:25;18.60;;;16.80;;
51146;SDS011;37207;53.060;18.726;2023-09-18T06:02:52;18.70;;;17.10;;
51146;SDS011;37207;53.060;18.726;2023-09-18T06:05:19;23.90;;;16.10;;
51146;SDS011;37207;53.060;18.726;2023-09-18T06:07:48;16.90;;;15.20;;
51146;SDS011;37207;53.060;18.726;2023-09-18T06:10:15;17.60;;;15.90;;
51146;SDS011;37207;53.060;18.726;2023-09-18T06:12:44;17.30;;;15.60;;
51146;SDS011;37207;53.060;18.726;2023-09-18T06:15:11;16.10;;;15.00;;
51146;SDS011;37207;53.060;18.726;2023-09-18T06:17:39;15.80;;;14.70;;
51146;SDS011;37207;53.060;18.726;2023-09-18T06:20:06;15.40;;;14.10;;
51146;SDS011;37207;53.060;18.726;2023-09-18T06:22:39;16.20;;;14.70;;
51146;SDS011;37207;53.060;18.726;2023-09-18T06:25:06;15.30;;;14.10;;
51146;SDS011;37207;53.060;18.726;2023-09-18T06:27:36;15.70;;;13.60;;
51146;SDS011;37207;53.060;18.726;2023-09-18T06:30:04;15.90;;;14.20;;
51146;SDS011;37207;53.060;18.726;2023-09-18T06:32:31;14.70;;;13.40;;
51146;SDS011;37207;53.060;18.726;2023-09-18T06:34:58;15.70;;;13.80;;
51146;SDS011;37207;53.060;18.726;2023-09-18T06:37:24;19.80;;;13.30;;
51146;SDS011;37207;53.060;18.726;2023-09-18T06:39:51;14.60;;;13.30;;
51146;SDS011;37207;53.060;18.726;2023-09-18T06:42:18;25.60;;;13.10;;
51146;SDS011;37207;53.060;18.726;2023-09-18T06:44:45;15.00;;;13.60;;
51146;SDS011;37207;53.060;18.726;2023-09-18T06:47:12;15.80;;;12.70;;
51146;SDS011;37207;53.060;18.726;2023-09-18T06:49:38;25.50;;;13.10;;
51146;SDS011;37207;53.060;18.726;2023-09-18T06:52:05;13.60;;;12.30;;
51146;SDS011;37207;53.060;18.726;2023-09-18T06:54:32;14.40;;;12.90;;
51146;SDS011;37207;53.060;18.726;2023-09-18T06:56:59;13.40;;;12.10;;
51146;SDS011;37207;53.060;18.726;2023-09-18T06:59:25;19.10;;;12.20;;
51146;SDS011;37207;53.060;18.726;2023-09-18T07:01:52;20.50;;;12.10;;
51146;SDS011;37207;53.060;18.726;2023-09-18T07:04:19;12.80;;;11.40;;
51146;SDS011;37207;53.060;18.726;2023-09-18T07:06:45;11.40;;;10.50;;
51146;SDS011;37207;53.060;18.726;2023-09-18T07:09:12;12.20;;;11.20;;
51146;SDS011;37207;53.060;18.726;2023-09-18T07:11:40;11.40;;;10.60;;
51146;SDS011;37207;53.060;18.726;2023-09-18T07:14:06;12.30;;;11.40;;
51146;SDS011;37207;53.060;18.726;2023-09-18T07:16:34;13.90;;;10.30;;
51146;SDS011;37207;53.060;18.726;2023-09-18T07:19:00;11.90;;;10.70;;
51146;SDS011;37207;53.060;18.726;2023-09-18T07:21:28;10.90;;;10.10;;
51146;SDS011;37207;53.060;18.726;2023-09-18T07:23:55;10.30;;;8.90;;
51146;SDS011;37207;53.060;18.726;2023-09-18T07:26:22;10.00;;;7.80;;
51146;SDS011;37207;53.060;18.726;2023-09-18T07:28:48;10.90;;;6.90;;
51146;SDS011;37207;53.060;18.726;2023-09-18T07:31:15;6.90;;;6.40;;
51146;SDS011;37207;53.060;18.726;2023-09-18T07:33:41;6.00;;;5.50;;
51146;SDS011;37207;53.060;18.726;2023-09-18T07:36:08;6.50;;;5.60;;
51146;SDS011;37207;53.060;18.726;2023-09-18T07:38:36;8.60;;;4.90;;
51146;SDS011;37207;53.060;18.726;2023-09-18T07:41:04;6.70;;;5.30;;
51146;SDS011;37207;53.060;18.726;2023-09-18T07:43:30;10.20;;;5.10;;
51146;SDS011;37207;53.060;18.726;2023-09-18T07:45:57;6.20;;;4.80;;
51146;SDS011;37207;53.060;18.726;2023-09-18T07:50:51;5.80;;;4.40;;
51146;SDS011;37207;53.060;18.726;2023-09-18T07:53:17;6.60;;;4.50;;
51146;SDS011;37207;53.060;18.726;2023-09-18T07:55:44;9.00;;;4.40;;
51146;SDS011;37207;53.060;18.726;2023-09-18T07:58:10;4.90;;;4.50;;
51146;SDS011;37207;53.060;18.726;2023-09-18T08:00:38;4.20;;;3.80;;
51146;SDS011;37207;53.060;18.726;2023-09-18T08:03:05;5.00;;;3.80;;
51146;SDS011;37207;53.060;18.726;2023-09-18T08:05:32;8.80;;;3.50;;
51146;SDS011;37207;53.060;18.726;2023-09-18T08:07:58;4.00;;;3.40;;
51146;SDS011;37207;53.060;18.726;2023-09-18T08:10:25;4.90;;;3.60;;
51146;SDS011;37207;53.060;18.726;2023-09-18T08:12:52;4.90;;;3.70;;
51146;SDS011;37207;53.060;18.726;2023-09-18T08:15:19;4.60;;;3.60;;
51146;SDS011;37207;53.060;18.726;2023-09-18T08:17:47;5.10;;;3.80;;
51146;SDS011;37207;53.060;18.726;2023-09-18T08:20:18;6.10;;;3.30;;
51146;SDS011;37207;53.060;18.726;2023-09-18T08:22:45;3.10;;;2.70;;
51146;SDS011;37207;53.060;18.726;2023-09-18T08:25:13;5.70;;;3.30;;
51146;SDS011;37207;53.060;18.726;2023-09-18T08:27:40;2.70;;;2.50;;
51146;SDS011;37207;53.060;18.726;2023-09-18T08:30:14;3.00;;;2.80;;
51146;SDS011;37207;53.060;18.726;2023-09-18T08:32:41;3.20;;;2.90;;
51146;SDS011;37207;53.060;18.726;2023-09-18T08:35:08;3.40;;;3.10;;
51146;SDS011;37207;53.060;18.726;2023-09-18T08:37:35;8.10;;;3.10;;
51146;SDS011;37207;53.060;18.726;2023-09-18T08:40:02;3.60;;;3.30;;
51146;SDS011;37207;53.060;18.726;2023-09-18T08:42:36;4.10;;;3.70;;
51146;SDS011;37207;53.060;18.726;2023-09-18T08:45:08;3.90;;;3.30;;
51146;SDS011;37207;53.060;18.726;2023-09-18T08:47:39;3.50;;;3.30;;
51146;SDS011;37207;53.060;18.726;2023-09-18T08:50:08;5.70;;;3.80;;
51146;SDS011;37207;53.060;18.726;2023-09-18T08:52:36;4.00;;;3.30;;
51146;SDS011;37207;53.060;18.726;2023-09-18T08:55:04;4.50;;;3.70;;
51146;SDS011;37207;53.060;18.726;2023-09-18T08:57:31;7.50;;;3.10;;
51146;SDS011;37207;53.060;18.726;2023-09-18T08:59:59;3.60;;;3.30;;
51146;SDS011;37207;53.060;18.726;2023-09-18T09:02:32;14.80;;;3.70;;
51146;SDS011;37207;53.060;18.726;2023-09-18T09:05:00;5.10;;;2.70;;
51146;SDS011;37207;53.060;18.726;2023-09-18T09:07:26;3.00;;;2.80;;
51146;SDS011;37207;53.060;18.726;2023-09-18T09:09:56;4.60;;;2.80;;
51146;SDS011;37207;53.060;18.726;2023-09-18T09:15:34;3.10;;;2.80;;
51146;SDS011;37207;53.060;18.726;2023-09-18T09:18:12;4.80;;;2.60;;
51146;SDS011;37207;53.060;18.726;2023-09-18T09:20:41;7.80;;;2.90;;
51146;SDS011;37207;53.060;18.726;2023-09-18T09:23:20;5.30;;;2.80;;
51146;SDS011;37207;53.060;18.726;2023-09-18T09:25:46;4.30;;;2.70;;
51146;SDS011;37207;53.060;18.726;2023-09-18T09:28:13;2.90;;;2.70;;
51146;SDS011;37207;53.060;18.726;2023-09-18T09:30:40;5.40;;;2.60;;
51146;SDS011;37207;53.060;18.726;2023-09-18T09:33:07;2.80;;;2.60;;
51146;SDS011;37207;53.060;18.726;2023-09-18T09:35:38;2.80;;;2.60;;
51146;SDS011;37207;53.060;18.726;2023-09-18T09:38:08;5.40;;;3.00;;
51146;SDS011;37207;53.060;18.726;2023-09-18T09:40:40;3.60;;;3.10;;
51146;SDS011;37207;53.060;18.726;2023-09-18T09:43:08;5.10;;;2.90;;
51146;SDS011;37207;53.060;18.726;2023-09-18T09:45:37;3.20;;;3.00;;
51146;SDS011;37207;53.060;18.726;2023-09-18T09:48:04;3.40;;;3.10;;
51146;SDS011;37207;53.060;18.726;2023-09-18T09:50:33;3.30;;;3.00;;
51146;SDS011;37207;53.060;18.726;2023-09-18T09:53:00;3.40;;;2.90;;
51146;SDS011;37207;53.060;18.726;2023-09-18T09:55:28;7.00;;;3.20;;
51146;SDS011;37207;53.060;18.726;2023-09-18T10:00:32;8.40;;;3.40;;
51146;SDS011;37207;53.060;18.726;2023-09-18T10:03:10;3.60;;;3.30;;
51146;SDS011;37207;53.060;18.726;2023-09-18T10:05:40;4.70;;;3.60;;
51146;SDS011;37207;53.060;18.726;2023-09-18T10:08:10;8.20;;;3.80;;
51146;SDS011;37207;53.060;18.726;2023-09-18T10:10:45;4.40;;;3.50;;
51146;SDS011;37207;53.060;18.726;2023-09-18T10:13:16;5.20;;;3.60;;
51146;SDS011;37207;53.060;18.726;2023-09-18T10:16:53;9.30;;;3.50;;
51146;SDS011;37207;53.060;18.726;2023-09-18T10:22:01;5.60;;;4.50;;
51146;SDS011;37207;53.060;18.726;2023-09-18T10:24:39;7.10;;;4.50;;
51146;SDS011;37207;53.060;18.726;2023-09-18T10:27:11;6.00;;;5.10;;
51146;SDS011;37207;53.060;18.726;2023-09-18T10:29:41;5.90;;;5.40;;
51146;SDS011;37207;53.060;18.726;2023-09-18T10:32:11;5.60;;;5.30;;
51146;SDS011;37207;53.060;18.726;2023-09-18T10:34:39;6.30;;;5.60;;
51146;SDS011;37207;53.060;18.726;2023-09-18T10:37:07;9.40;;;6.10;;
51146;SDS011;37207;53.060;18.726;2023-09-18T10:39:37;6.20;;;5.40;;
51146;SDS011;37207;53.060;18.726;2023-09-18T10:42:06;7.20;;;6.10;;
51146;SDS011;37207;53.060;18.726;2023-09-18T10:44:36;7.00;;;5.90;;
51146;SDS011;37207;53.060;18.726;2023-09-18T10:47:06;9.30;;;6.40;;
51146;SDS011;37207;53.060;18.726;2023-09-18T10:49:36;9.60;;;6.50;;
51146;SDS011;37207;53.060;18.726;2023-09-18T10:52:03;6.80;;;6.30;;
51146;SDS011;37207;53.060;18.726;2023-09-18T10:54:30;7.50;;;6.30;;
51146;SDS011;37207;53.060;18.726;2023-09-18T10:56:58;7.50;;;6.50;;
51146;SDS011;37207;53.060;18.726;2023-09-18T11:01:53;13.90;;;7.00;;
51146;SDS011;37207;53.060;18.726;2023-09-18T11:04:20;7.50;;;6.80;;
51146;SDS011;37207;53.060;18.726;2023-09-18T11:09:25;7.90;;;7.20;;
51146;SDS011;37207;53.060;18.726;2023-09-18T11:17:39;8.50;;;7.30;;
51146;SDS011;37207;53.060;18.726;2023-09-18T11:20:16;8.30;;;7.50;;
51146;SDS011;37207;53.060;18.726;2023-09-18T11:22:58;31.90;;;7.90;;
51146;SDS011;37207;53.060;18.726;2023-09-18T11:25:37;8.70;;;7.90;;
51146;SDS011;37207;53.060;18.726;2023-09-18T11:28:05;13.60;;;7.70;;
51146;SDS011;37207;53.060;18.726;2023-09-18T11:30:34;19.40;;;7.70;;
51146;SDS011;37207;53.060;18.726;2023-09-18T11:33:06;8.00;;;7.20;;
51146;SDS011;37207;53.060;18.726;2023-09-18T11:35:35;7.30;;;6.70;;
51146;SDS011;37207;53.060;18.726;2023-09-18T11:38:10;7.70;;;6.50;;
51146;SDS011;37207;53.060;18.726;2023-09-18T11:40:37;16.00;;;8.40;;
51146;SDS011;37207;53.060;18.726;2023-09-18T11:45:50;8.80;;;7.30;;
51146;SDS011;37207;53.060;18.726;2023-09-18T11:48:20;8.50;;;7.80;;
51146;SDS011;37207;53.060;18.726;2023-09-18T11:50:51;17.30;;;7.40;;
51146;SDS011;37207;53.060;18.726;2023-09-18T11:53:18;11.80;;;7.70;;
51146;SDS011;37207;53.060;18.726;2023-09-18T11:55:45;23.10;;;7.70;;
51146;SDS011;37207;53.060;18.726;2023-09-18T11:58:13;11.20;;;7.20;;
51146;SDS011;37207;53.060;18.726;2023-09-18T12:00:40;8.30;;;7.50;;
51146;SDS011;37207;53.060;18.726;2023-09-18T12:03:17;22.80;;;7.70;;
51146;SDS011;37207;53.060;18.726;2023-09-18T12:05:52;14.40;;;7.70;;
51146;SDS011;37207;53.060;18.726;2023-09-18T12:08:21;8.20;;;7.40;;
51146;SDS011;37207;53.060;18.726;2023-09-18T12:10:49;9.00;;;7.00;;
51146;SDS011;37207;53.060;18.726;2023-09-18T12:13:17;10.80;;;6.90;;
51146;SDS011;37207;53.060;18.726;2023-09-18T12:15:44;14.30;;;6.30;;
51146;SDS011;37207;53.060;18.726;2023-09-18T12:18:11;9.20;;;5.90;;
51146;SDS011;37207;53.060;18.726;2023-09-18T12:20:44;7.60;;;6.30;;
51146;SDS011;37207;53.060;18.726;2023-09-18T12:23:12;7.50;;;6.80;;
51146;SDS011;37207;53.060;18.726;2023-09-18T12:25:38;9.00;;;7.00;;
51146;SDS011;37207;53.060;18.726;2023-09-18T12:28:06;9.00;;;6.90;;
51146;SDS011;37207;53.060;18.726;2023-09-18T12:30:33;11.20;;;6.90;;
51146;SDS011;37207;53.060;18.726;2023-09-18T12:33:00;10.60;;;6.80;;
51146;SDS011;37207;53.060;18.726;2023-09-18T12:35:27;23.20;;;7.50;;
51146;SDS011;37207;53.060;18.726;2023-09-18T12:37:59;7.80;;;6.60;;
51146;SDS011;37207;53.060;18.726;2023-09-18T12:40:28;8.30;;;6.90;;
51146;SDS011;37207;53.060;18.726;2023-09-18T12:42:56;8.30;;;6.90;;
51146;SDS011;37207;53.060;18.726;2023-09-18T12:45:27;52.10;;;8.00;;
51146;SDS011;37207;53.060;18.726;2023-09-18T12:47:56;6.50;;;5.90;;
51146;SDS011;37207;53.060;18.726;2023-09-18T12:50:24;7.50;;;6.30;;
51146;SDS011;37207;53.060;18.726;2023-09-18T12:52:51;7.30;;;6.10;;
51146;SDS011;37207;53.060;18.726;2023-09-18T12:55:25;6.40;;;5.40;;
51146;SDS011;37207;53.060;18.726;2023-09-18T12:57:53;6.20;;;5.70;;
51146;SDS011;37207;53.060;18.726;2023-09-18T13:00:21;8.40;;;5.70;;
51146;SDS011;37207;53.060;18.726;2023-09-18T13:02:49;8.40;;;6.10;;
51146;SDS011;37207;53.060;18.726;2023-09-18T13:05:21;12.70;;;6.40;;
51146;SDS011;37207;53.060;18.726;2023-09-18T13:07:52;6.40;;;5.90;;
51146;SDS011;37207;53.060;18.726;2023-09-18T13:10:20;6.50;;;5.90;;
51146;SDS011;37207;53.060;18.726;2023-09-18T13:12:49;9.70;;;6.90;;
51146;SDS011;37207;53.060;18.726;2023-09-18T13:15:35;6.50;;;5.90;;
51146;SDS011;37207;53.060;18.726;2023-09-18T13:18:09;17.80;;;6.10;;
51146;SDS011;37207;53.060;18.726;2023-09-18T13:20:37;7.50;;;6.50;;
51146;SDS011;37207;53.060;18.726;2023-09-18T13:23:04;7.90;;;6.20;;
51146;SDS011;37207;53.060;18.726;2023-09-18T13:25:32;8.20;;;6.70;;
51146;SDS011;37207;53.060;18.726;2023-09-18T13:28:01;7.50;;;6.70;;
51146;SDS011;37207;53.060;18.726;2023-09-18T13:30:30;8.60;;;6.10;;
51146;SDS011;37207;53.060;18.726;2023-09-18T13:33:03;7.60;;;6.90;;
51146;SDS011;37207;53.060;18.726;2023-09-18T13:35:33;17.80;;;7.50;;
51146;SDS011;37207;53.060;18.726;2023-09-18T13:38:01;7.20;;;6.50;;
51146;SDS011;37207;53.060;18.726;2023-09-18T13:40:32;9.20;;;7.00;;
51146;SDS011;37207;53.060;18.726;2023-09-18T13:43:05;14.20;;;7.70;;
51146;SDS011;37207;53.060;18.726;2023-09-18T13:48:02;8.50;;;6.90;;
51146;SDS011;37207;53.060;18.726;2023-09-18T13:50:29;11.40;;;6.90;;
51146;SDS011;37207;53.060;18.726;2023-09-18T13:52:56;14.40;;;7.20;;
51146;SDS011;37207;53.060;18.726;2023-09-18T13:55:23;9.00;;;7.20;;
51146;SDS011;37207;53.060;18.726;2023-09-18T13:57:49;7.90;;;7.10;;
51146;SDS011;37207;53.060;18.726;2023-09-18T14:00:16;19.80;;;8.00;;
51146;SDS011;37207;53.060;18.726;2023-09-18T14:02:43;15.60;;;8.10;;
51146;SDS011;37207;53.060;18.726;2023-09-18T14:05:10;8.40;;;7.70;;
51146;SDS011;37207;53.060;18.726;2023-09-18T14:07:37;8.00;;;7.30;;
51146;SDS011;37207;53.060;18.726;2023-09-18T14:10:07;8.90;;;7.60;;
51146;SDS011;37207;53.060;18.726;2023-09-18T14:12:39;8.70;;;8.10;;
51146;SDS011;37207;53.060;18.726;2023-09-18T14:15:08;8.80;;;8.00;;
51146;SDS011;37207;53.060;18.726;2023-09-18T14:17:36;16.90;;;8.90;;
51146;SDS011;37207;53.060;18.726;2023-09-18T14:20:04;8.90;;;8.30;;
51146;SDS011;37207;53.060;18.726;2023-09-18T14:22:33;10.70;;;8.00;;
51146;SDS011;37207;53.060;18.726;2023-09-18T14:27:32;8.70;;;8.10;;
51146;SDS011;37207;53.060;18.726;2023-09-18T14:29:59;9.00;;;8.30;;
51146;SDS011;37207;53.060;18.726;2023-09-18T14:32:27;13.20;;;8.30;;
51146;SDS011;37207;53.060;18.726;2023-09-18T14:34:54;8.70;;;8.00;;
51146;SDS011;37207;53.060;18.726;2023-09-18T14:37:21;10.00;;;9.00;;
51146;SDS011;37207;53.060;18.726;2023-09-18T14:39:47;13.00;;;8.10;;
51146;SDS011;37207;53.060;18.726;2023-09-18T14:42:14;9.70;;;8.50;;
51146;SDS011;37207;53.060;18.726;2023-09-18T14:44:41;10.40;;;8.40;;
51146;SDS011;37207;53.060;18.726;2023-09-18T14:47:11;9.20;;;8.30;;
51146;SDS011;37207;53.060;18.726;2023-09-18T14:49:38;8.70;;;8.20;;
51146;SDS011;37207;53.060;18.726;2023-09-18T14:52:05;12.20;;;8.50;;
51146;SDS011;37207;53.060;18.726;2023-09-18T14:54:32;14.10;;;12.80;;
51146;SDS011;37207;53.060;18.726;2023-09-18T14:56:59;9.20;;;8.20;;
51146;SDS011;37207;53.060;18.726;2023-09-18T14:59:27;8.70;;;8.00;;
51146;SDS011;37207;53.060;18.726;2023-09-18T15:01:54;12.40;;;7.60;;
51146;SDS011;37207;53.060;18.726;2023-09-18T15:04:20;11.60;;;7.40;;
51146;SDS011;37207;53.060;18.726;2023-09-18T15:06:48;11.40;;;8.20;;
51146;SDS011;37207;53.060;18.726;2023-09-18T15:09:15;10.10;;;8.90;;